createdAt,value
2022-08-06T00:00:27.021Z,3.92
2022-08-06T00:02:56.134Z,3.40
2022-08-06T00:05:27.498Z,3.75
2022-08-06T00:08:02.139Z,5.50
2022-08-06T00:10:32.195Z,2.83
2022-08-06T00:13:02.037Z,7.72
2022-08-06T00:16:06.594Z,3.78
2022-08-06T00:18:21.205Z,4.85
2022-08-06T00:20:52.435Z,3.78
2022-08-06T00:23:24.495Z,3.83
2022-08-06T00:25:55.334Z,4.32
2022-08-06T00:28:30.839Z,3.92
2022-08-06T00:31:06.353Z,3.03
2022-08-06T00:33:43.595Z,4.28
2022-08-06T00:36:24.849Z,3.70
2022-08-06T00:38:53.734Z,5.15
2022-08-06T00:41:27.129Z,4.57
2022-08-06T00:43:59.371Z,4.20
2022-08-06T00:46:31.022Z,4.25
2022-08-06T00:48:59.502Z,2.58
2022-08-06T00:51:50.934Z,3.20
2022-08-06T00:54:28.649Z,5.05
2022-08-06T00:57:07.596Z,7.68
2022-08-06T00:59:38.877Z,5.57
2022-08-06T01:02:09.985Z,4.45
2022-08-06T01:04:39.068Z,6.18
2022-08-06T01:07:10.433Z,5.28
2022-08-06T01:09:57.186Z,3.88
2022-08-06T01:12:33.500Z,5.93
2022-08-06T01:15:16.316Z,3.55
2022-08-06T01:17:59.801Z,6.95
2022-08-06T01:21:58.480Z,6.18
2022-08-06T01:24:06.502Z,3.33
2022-08-06T01:26:46.624Z,3.63
2022-08-06T01:29:27.280Z,2.60
2022-08-06T01:32:09.933Z,4.18
2022-08-06T01:34:42.121Z,2.38
2022-08-06T01:37:23.913Z,3.42
2022-08-06T01:40:02.655Z,5.68
2022-08-06T01:42:36.582Z,4.78
2022-08-06T01:45:15.684Z,4.22
2022-08-06T01:47:54.125Z,6.80
2022-08-06T01:50:30.190Z,4.22
2022-08-06T01:53:02.179Z,6.40
2022-08-06T01:55:56.059Z,5.88
2022-08-06T01:58:30.941Z,3.88
2022-08-06T02:01:05.886Z,2.72
2022-08-06T02:03:53.211Z,2.90
2022-08-06T02:06:34.690Z,4.03
2022-08-06T02:09:21.933Z,4.82
2022-08-06T02:12:03.982Z,2.33
2022-08-06T02:14:41.813Z,2.03
2022-08-06T02:17:15.972Z,3.13
2022-08-06T02:20:05.123Z,5.60
2022-08-06T02:22:42.318Z,4.30
2022-08-06T02:25:22.432Z,2.67
2022-08-06T02:28:02.745Z,4.40
2022-08-06T02:30:42.978Z,3.75
2022-08-06T02:33:17.993Z,6.40
2022-08-06T02:35:52.979Z,3.67
2022-08-06T02:38:33.004Z,5.05
2022-08-06T02:41:13.837Z,3.35
2022-08-06T02:43:53.978Z,1.73
2022-08-06T02:46:30.599Z,4.47
2022-08-06T02:49:06.640Z,3.53
2022-08-06T02:52:11.502Z,3.67
2022-08-06T02:54:46.401Z,4.90
2022-08-06T02:57:24.618Z,3.65
2022-08-06T02:59:59.690Z,4.05
2022-08-06T03:02:31.128Z,4.63
2022-08-06T03:05:04.877Z,3.08
2022-08-06T03:07:36.452Z,4.75
2022-08-06T03:10:12.533Z,2.65
2022-08-06T03:12:44.358Z,3.65
2022-08-06T03:15:39.128Z,3.95
2022-08-06T03:18:09.198Z,4.80
2022-08-06T03:20:44.002Z,6.95
2022-08-06T03:23:16.716Z,3.42
2022-08-06T03:25:47.983Z,5.35
2022-08-06T03:28:20.651Z,5.35
2022-08-06T03:30:55.577Z,3.92
2022-08-06T03:33:41.534Z,3.17
2022-08-06T03:36:17.609Z,4.57
2022-08-06T03:38:54.336Z,7.32
2022-08-06T03:41:29.190Z,3.45
2022-08-06T03:44:05.022Z,3.65
2022-08-06T03:46:38.988Z,3.80
2022-08-06T03:49:26.131Z,8.07
2022-08-06T03:52:00.762Z,5.13
2022-08-06T03:54:38.480Z,3.83
2022-08-06T03:57:29.627Z,4.00
2022-08-06T04:00:12.785Z,2.47
2022-08-06T04:02:47.885Z,2.17
2022-08-06T04:05:22.632Z,2.13
2022-08-06T04:07:57.353Z,4.70
2022-08-06T04:10:33.694Z,3.63
2022-08-06T04:13:40.519Z,7.07
2022-08-06T04:15:57.809Z,5.10
2022-08-06T04:18:30.997Z,6.32
2022-08-06T04:21:20.545Z,5.60
2022-08-06T04:23:54.902Z,3.85
2022-08-06T04:26:28.578Z,2.72
2022-08-06T04:29:02.735Z,2.22
2022-08-06T04:32:03.301Z,3.40
2022-08-06T04:34:27.082Z,2.95
2022-08-06T04:37:01.388Z,3.28
2022-08-06T04:39:49.243Z,3.42
2022-08-06T04:42:19.714Z,2.13
2022-08-06T04:44:56.194Z,3.03
2022-08-06T04:47:41.489Z,3.63
2022-08-06T04:50:11.578Z,3.17
2022-08-06T04:52:48.016Z,3.45
2022-08-06T04:55:25.317Z,2.20
2022-08-06T04:58:08.467Z,1.83
2022-08-06T05:01:00.725Z,5.13
2022-08-06T05:04:05.593Z,1.40
2022-08-06T05:06:27.818Z,2.80
2022-08-06T05:09:20.656Z,3.83
2022-08-06T05:11:59.682Z,1.95
2022-08-06T05:14:38.848Z,2.55
2022-08-06T05:17:12.805Z,2.28
2022-08-06T05:19:49.824Z,2.92
2022-08-06T05:22:42.541Z,4.88
2022-08-06T05:25:19.272Z,5.03
2022-08-06T05:28:03.394Z,3.30
2022-08-06T05:30:46.455Z,2.72
2022-08-06T05:33:26.322Z,2.92
2022-08-06T05:36:02.571Z,2.20
2022-08-06T05:38:37.104Z,1.92
2022-08-06T05:41:08.411Z,3.72
2022-08-06T05:43:58.079Z,2.85
2022-08-06T05:46:33.880Z,4.68
2022-08-06T05:49:31.422Z,3.85
2022-08-06T05:52:06.525Z,5.75
2022-08-06T05:54:42.630Z,4.10
2022-08-06T05:57:41.442Z,3.72
2022-08-06T06:00:42.459Z,4.38
2022-08-06T06:03:24.351Z,5.13
2022-08-06T06:06:06.417Z,3.22
2022-08-06T06:08:58.724Z,2.80
2022-08-06T06:11:47.200Z,4.93
2022-08-06T06:14:39.477Z,4.88
2022-08-06T06:17:48.408Z,4.20
2022-08-06T06:20:57.977Z,5.32
2022-08-06T06:23:17.689Z,5.60
2022-08-06T06:26:01.713Z,2.03
2022-08-06T06:28:39.508Z,1.92
2022-08-06T06:32:04.326Z,3.70
2022-08-06T06:34:27.848Z,2.50
2022-08-06T06:37:05.505Z,3.67
2022-08-06T06:39:40.376Z,3.97
2022-08-06T06:42:32.446Z,3.72
2022-08-06T06:46:04.853Z,4.78
2022-08-06T06:48:11.013Z,2.03
2022-08-06T06:50:48.654Z,3.63
2022-08-06T06:53:19.754Z,2.83
2022-08-06T06:56:01.506Z,2.92
2022-08-06T06:58:47.141Z,5.60
2022-08-06T07:01:28.533Z,4.85
2022-08-06T07:04:01.300Z,1.88
2022-08-06T07:06:43.935Z,2.33
2022-08-06T07:09:41.407Z,6.47
2022-08-06T07:12:20.177Z,3.05
2022-08-06T07:15:00.762Z,2.65
2022-08-06T07:17:45.196Z,2.05
2022-08-06T07:20:25.837Z,1.27
2022-08-06T07:24:03.299Z,2.17
2022-08-06T07:25:54.750Z,2.40
2022-08-06T07:28:28.772Z,4.97
2022-08-06T07:31:04.227Z,4.60
2022-08-06T07:34:00.007Z,1.95
2022-08-06T07:36:36.677Z,4.00
2022-08-06T07:39:14.457Z,1.77
2022-08-06T07:42:06.899Z,1.83
2022-08-06T07:44:54.775Z,3.80
2022-08-06T07:47:46.368Z,5.15
2022-08-06T07:50:23.426Z,4.03
2022-08-06T07:52:57.920Z,2.20
2022-08-06T07:55:37.142Z,3.03
2022-08-06T07:58:10.051Z,5.68
2022-08-06T08:00:49.053Z,4.65
2022-08-06T08:03:57.580Z,3.03
2022-08-06T08:06:27.535Z,3.25
2022-08-06T08:09:00.792Z,3.35
2022-08-06T08:11:38.469Z,4.88
2022-08-06T08:14:24.010Z,3.80
2022-08-06T08:16:54.568Z,3.78
2022-08-06T08:19:35.130Z,2.05
2022-08-06T08:22:07.690Z,1.80
2022-08-06T08:24:38.516Z,2.92
2022-08-06T08:27:12.533Z,3.22
2022-08-06T08:29:55.380Z,2.95
2022-08-06T08:32:26.532Z,1.55
2022-08-06T08:34:56.139Z,1.77
2022-08-06T08:37:32.027Z,2.30
2022-08-06T08:40:01.496Z,2.00
2022-08-06T08:42:42.015Z,1.65
2022-08-06T08:45:13.417Z,1.90
2022-08-06T08:47:53.742Z,3.33
2022-08-06T08:50:30.303Z,4.90
2022-08-06T08:53:05.349Z,2.90
2022-08-06T08:57:08.113Z,2.90
2022-08-06T08:58:37.045Z,4.07
2022-08-06T09:01:51.479Z,2.72
2022-08-06T09:04:05.608Z,1.42
2022-08-06T09:06:37.166Z,4.65
2022-08-06T09:09:07.427Z,2.80
2022-08-06T09:12:05.821Z,1.98
2022-08-06T09:14:34.201Z,2.15
2022-08-06T09:17:04.465Z,2.40
2022-08-06T09:19:37.732Z,3.65
2022-08-06T09:22:11.943Z,3.08
2022-08-06T09:24:41.543Z,3.15
2022-08-06T09:27:47.399Z,1.40
2022-08-06T09:30:18.754Z,2.33
2022-08-06T09:32:58.033Z,2.42
2022-08-06T09:35:44.374Z,2.70
2022-08-06T09:38:17.973Z,1.88
2022-08-06T09:41:08.817Z,3.90
2022-08-06T09:44:02.027Z,2.05
2022-08-06T09:46:44.226Z,3.95
2022-08-06T09:49:48.599Z,4.50
2022-08-06T09:52:17.324Z,3.47
2022-08-06T09:54:53.604Z,2.08
2022-08-06T09:57:35.831Z,3.80
2022-08-06T10:00:14.248Z,4.03
2022-08-06T10:02:51.844Z,3.55
2022-08-06T10:05:23.156Z,3.45
2022-08-06T10:08:08.123Z,2.75
2022-08-06T10:10:49.400Z,4.78
2022-08-06T10:13:24.591Z,2.83
2022-08-06T10:16:00.704Z,1.98
2022-08-06T10:18:54.868Z,4.82
2022-08-06T10:21:40.087Z,2.92
2022-08-06T10:24:13.079Z,3.05
2022-08-06T10:26:44.453Z,4.40
2022-08-06T10:29:14.977Z,3.22
2022-08-06T10:31:46.537Z,2.30
2022-08-06T10:34:30.041Z,5.95
2022-08-06T10:37:47.580Z,3.97
2022-08-06T10:40:08.543Z,5.82
2022-08-06T10:42:40.475Z,3.45
2022-08-06T10:45:14.274Z,3.58
2022-08-06T10:49:00.909Z,3.92
2022-08-06T10:50:52.865Z,4.47
2022-08-06T10:54:02.166Z,11.07
2022-08-06T10:56:18.206Z,3.65
2022-08-06T10:58:50.775Z,5.53
2022-08-06T11:01:36.642Z,4.28
2022-08-06T11:04:35.087Z,5.50
2022-08-06T11:08:09.280Z,4.63
2022-08-06T11:10:53.301Z,4.60
2022-08-06T11:13:37.414Z,6.53
2022-08-06T11:16:27.834Z,4.40
2022-08-06T11:19:07.629Z,4.90
2022-08-06T11:22:01.831Z,8.32
2022-08-06T11:24:38.118Z,9.30
2022-08-06T11:27:48.305Z,4.35
2022-08-06T11:30:26.698Z,6.63
2022-08-06T11:32:55.550Z,5.03
2022-08-06T11:35:52.015Z,5.45
2022-08-06T11:39:09.908Z,6.93
2022-08-06T11:41:58.962Z,4.63
2022-08-06T11:44:30.822Z,3.97
2022-08-06T11:47:13.610Z,4.95
2022-08-06T11:49:46.393Z,6.57
2022-08-06T11:52:45.138Z,5.72
2022-08-06T11:55:22.622Z,5.03
2022-08-06T11:58:23.353Z,4.43
2022-08-06T12:01:03.434Z,4.50
2022-08-06T12:03:52.303Z,5.35
2022-08-06T12:06:26.074Z,5.75
2022-08-06T12:09:16.104Z,8.05
2022-08-06T12:11:53.958Z,5.30
2022-08-06T12:14:49.233Z,4.82
2022-08-06T12:17:20.658Z,5.63
2022-08-06T12:20:02.435Z,8.35
2022-08-06T12:22:36.170Z,6.25
2022-08-06T12:25:11.207Z,5.60
2022-08-06T12:27:51.083Z,5.65
2022-08-06T12:30:36.694Z,5.45
2022-08-06T12:33:12.478Z,7.75
2022-08-06T12:35:52.588Z,5.93
2022-08-06T12:38:25.027Z,5.38
2022-08-06T12:40:59.812Z,6.78
2022-08-06T12:43:45.865Z,4.32
2022-08-06T12:46:19.316Z,4.55
2022-08-06T12:48:53.138Z,4.50
2022-08-06T12:51:27.712Z,6.88
2022-08-06T12:54:00.403Z,4.65
2022-08-06T12:56:33.021Z,4.80
2022-08-06T12:59:22.464Z,5.18
2022-08-06T13:02:07.974Z,5.80
2022-08-06T13:04:39.573Z,5.78
2022-08-06T13:07:14.444Z,5.07
2022-08-06T13:10:15.438Z,5.97
2022-08-06T13:14:03.385Z,5.10
2022-08-06T13:15:31.856Z,6.90
2022-08-06T13:18:33.772Z,7.40
2022-08-06T13:21:16.480Z,7.60
2022-08-06T13:23:53.241Z,9.70
2022-08-06T13:26:26.765Z,9.63
2022-08-06T13:30:35.452Z,6.32
2022-08-06T13:32:19.480Z,5.35
2022-08-06T13:34:59.047Z,5.93
2022-08-06T13:37:57.236Z,5.82
2022-08-06T13:40:47.232Z,6.13
2022-08-06T13:43:38.245Z,7.53
2022-08-06T13:46:15.260Z,5.78
2022-08-06T13:48:48.995Z,5.68
2022-08-06T13:51:28.811Z,7.13
2022-08-06T13:53:59.443Z,6.18
2022-08-06T13:56:34.183Z,8.00
2022-08-06T13:59:07.611Z,6.32
2022-08-06T14:01:45.671Z,6.80
2022-08-06T14:04:19.056Z,6.65
2022-08-06T14:06:51.056Z,6.10
2022-08-06T14:09:22.523Z,6.55
2022-08-06T14:11:55.640Z,8.48
2022-08-06T14:14:27.294Z,8.70
2022-08-06T14:16:58.661Z,9.00
2022-08-06T14:20:14.888Z,7.38
2022-08-06T14:22:17.491Z,7.15
2022-08-06T14:24:47.631Z,6.97
2022-08-06T14:27:23.958Z,9.27
2022-08-06T14:30:28.895Z,7.22
2022-08-06T14:32:50.950Z,8.75
2022-08-06T14:35:20.146Z,11.13
2022-08-06T14:37:51.982Z,8.00
2022-08-06T14:41:00.948Z,7.50
2022-08-06T14:43:56.639Z,8.27
2022-08-06T14:46:30.293Z,7.53
2022-08-06T14:49:05.515Z,6.50
2022-08-06T14:52:19.048Z,7.55
2022-08-06T14:54:32.992Z,10.65
2022-08-06T14:57:14.651Z,9.70
2022-08-06T14:59:49.189Z,7.90
2022-08-06T15:02:24.862Z,9.27
2022-08-06T15:04:54.655Z,7.13
2022-08-06T15:07:35.621Z,7.15
2022-08-06T15:10:27.629Z,7.35
2022-08-06T15:13:00.957Z,8.15
2022-08-06T15:15:37.070Z,7.50
2022-08-06T15:18:25.026Z,6.50
2022-08-06T15:21:10.097Z,7.80
2022-08-06T15:23:53.240Z,9.10
2022-08-06T15:26:46.510Z,7.53
2022-08-06T15:29:15.400Z,6.53
2022-08-06T15:31:46.048Z,6.45
2022-08-06T15:34:19.512Z,7.55
2022-08-06T15:37:01.990Z,7.30
2022-08-06T15:39:52.593Z,7.13
2022-08-06T15:42:24.519Z,8.75
2022-08-06T15:44:53.863Z,8.68
2022-08-06T15:47:27.054Z,6.93
2022-08-06T15:50:04.667Z,10.05
2022-08-06T15:52:37.397Z,8.35
2022-08-06T15:55:15.239Z,6.57
2022-08-06T15:58:05.307Z,6.78
2022-08-06T16:00:37.443Z,6.80
2022-08-06T16:03:08.358Z,7.47
2022-08-06T16:06:10.647Z,7.65
2022-08-06T16:08:34.402Z,9.10
2022-08-06T16:11:09.694Z,11.13
2022-08-06T16:13:41.034Z,7.70
2022-08-06T16:16:25.193Z,5.55
2022-08-06T16:19:03.546Z,9.40
2022-08-06T16:21:33.944Z,6.03
2022-08-06T16:24:05.731Z,10.45
2022-08-06T16:26:48.508Z,9.50
2022-08-06T16:29:22.603Z,8.13
2022-08-06T16:31:54.038Z,5.88
2022-08-06T16:34:29.859Z,9.68
2022-08-06T16:37:00.384Z,6.07
2022-08-06T16:39:36.452Z,8.18
2022-08-06T16:42:09.227Z,7.55
2022-08-06T16:50:26.666Z,6.70
2022-08-06T16:54:08.440Z,5.75
2022-08-06T16:55:48.806Z,7.00
2022-08-06T16:58:34.676Z,8.98
2022-08-06T17:02:14.779Z,9.23
2022-08-06T17:03:59.811Z,7.50
2022-08-06T17:06:31.365Z,10.50
2022-08-06T17:09:17.144Z,7.65
2022-08-06T17:11:58.272Z,6.88
2022-08-06T17:14:32.726Z,6.97
2022-08-06T17:17:05.421Z,6.60
2022-08-06T17:19:37.027Z,7.75
2022-08-06T17:22:06.793Z,8.43
2022-08-06T17:24:42.563Z,7.93
2022-08-06T17:27:16.192Z,13.05
2022-08-06T17:30:07.419Z,10.18
2022-08-06T17:32:46.216Z,10.43
2022-08-06T17:35:17.525Z,7.95
2022-08-06T17:37:51.408Z,7.72
2022-08-06T17:40:30.659Z,8.43
2022-08-06T17:43:04.775Z,10.05
2022-08-06T17:45:35.432Z,10.68
2022-08-06T17:48:07.358Z,7.95
2022-08-06T17:50:52.988Z,9.07
2022-08-06T17:53:21.814Z,8.85
2022-08-06T17:55:59.585Z,7.72
2022-08-06T17:58:38.302Z,10.25
2022-08-06T18:01:16.714Z,7.00
2022-08-06T18:03:49.920Z,7.18
2022-08-06T18:06:28.942Z,8.40
2022-08-06T18:09:35.608Z,7.75
2022-08-06T18:11:47.149Z,9.98
2022-08-06T18:14:32.670Z,8.07
2022-08-06T18:17:01.632Z,8.07
2022-08-06T18:19:33.935Z,7.32
2022-08-06T18:22:21.385Z,7.97
2022-08-06T18:24:52.881Z,8.73
2022-08-06T18:27:54.663Z,7.43
2022-08-06T18:30:36.699Z,12.63
2022-08-06T18:33:03.834Z,8.88
2022-08-06T18:35:55.898Z,7.22
2022-08-06T18:38:22.042Z,7.72
2022-08-06T18:40:58.941Z,7.55
2022-08-06T18:43:54.514Z,7.18
2022-08-06T18:46:55.974Z,9.07
2022-08-06T18:49:15.691Z,8.90
2022-08-06T18:51:47.598Z,9.90
2022-08-06T18:54:23.332Z,8.63
2022-08-06T18:56:53.310Z,8.52
2022-08-06T18:59:29.069Z,9.05
2022-08-06T19:01:59.357Z,8.48
2022-08-06T19:04:29.179Z,8.43
2022-08-06T19:07:03.101Z,8.68
2022-08-06T19:09:34.650Z,8.25
2022-08-06T19:12:13.075Z,8.90
2022-08-06T19:14:48.342Z,8.70
2022-08-06T19:17:47.817Z,7.53
2022-08-06T19:20:19.380Z,8.20
2022-08-06T19:22:53.363Z,7.55
2022-08-06T19:25:28.675Z,8.18
2022-08-06T19:28:35.575Z,6.18
2022-08-06T19:31:00.503Z,6.82
2022-08-06T19:33:28.737Z,7.15
2022-08-06T19:36:03.065Z,7.00
2022-08-06T19:38:37.092Z,10.80
2022-08-06T19:41:06.972Z,9.57
2022-08-06T19:44:27.354Z,10.18
2022-08-06T19:46:31.919Z,7.68
2022-08-06T19:49:04.412Z,9.05
2022-08-06T19:52:02.973Z,7.07
2022-08-06T19:54:25.840Z,11.35
2022-08-06T19:56:54.964Z,6.88
2022-08-06T20:00:52.845Z,8.77
2022-08-06T20:02:15.433Z,9.55
2022-08-06T20:04:44.916Z,9.95
2022-08-06T20:07:34.314Z,7.25
2022-08-06T20:10:04.982Z,7.03
2022-08-06T20:12:38.307Z,7.43
2022-08-06T20:15:11.836Z,9.68
2022-08-06T20:17:46.093Z,10.07
2022-08-06T20:20:28.891Z,11.02
2022-08-06T20:23:07.971Z,8.45
2022-08-06T20:26:09.254Z,8.85
2022-08-06T20:29:08.915Z,6.38
2022-08-06T20:31:22.785Z,7.03
2022-08-06T20:33:58.604Z,6.93
2022-08-06T20:36:30.090Z,7.60
2022-08-06T20:38:59.846Z,9.32
2022-08-06T20:42:04.410Z,7.55
2022-08-06T20:44:20.125Z,10.45
2022-08-06T20:47:45.952Z,8.75
2022-08-06T20:50:04.183Z,11.38
2022-08-06T20:52:29.490Z,8.20
2022-08-06T20:54:59.477Z,8.40
2022-08-06T20:57:37.454Z,8.13
2022-08-06T21:00:17.415Z,8.77
2022-08-06T21:02:54.591Z,10.85
2022-08-06T21:05:47.057Z,10.75
2022-08-06T21:08:26.347Z,7.95
2022-08-06T21:10:57.302Z,12.60
2022-08-06T21:13:35.065Z,8.25
2022-08-06T21:16:14.704Z,9.13
2022-08-06T21:18:55.157Z,9.20
2022-08-06T21:21:26.711Z,12.10
2022-08-06T21:24:01.047Z,10.25
2022-08-06T21:26:34.736Z,10.30
2022-08-06T21:29:41.666Z,9.88
2022-08-06T21:31:59.562Z,10.07
2022-08-06T21:34:30.855Z,11.02
2022-08-06T21:37:02.723Z,10.45
2022-08-06T21:39:56.379Z,12.15
2022-08-06T21:42:26.564Z,9.27
2022-08-06T21:44:58.636Z,8.98
2022-08-06T21:47:36.295Z,10.35
2022-08-06T21:50:25.492Z,11.63
2022-08-06T21:52:55.391Z,11.27
2022-08-06T21:56:36.668Z,12.90
2022-08-06T21:58:26.693Z,11.48
2022-08-06T22:00:56.766Z,10.57
2022-08-06T22:04:38.283Z,10.45
2022-08-06T22:06:21.979Z,11.20
2022-08-06T22:09:04.040Z,10.55
2022-08-06T22:12:40.460Z,14.40
2022-08-06T22:14:28.790Z,12.63
2022-08-06T22:17:05.916Z,14.07
2022-08-06T22:19:39.411Z,11.95
2022-08-06T22:22:11.239Z,11.07
2022-08-06T22:24:47.612Z,11.65
2022-08-06T22:27:19.718Z,15.60
2022-08-06T22:30:07.150Z,12.50
2022-08-06T22:32:36.821Z,10.00
2022-08-06T22:35:09.408Z,11.35
2022-08-06T22:38:16.387Z,12.70
2022-08-06T22:40:29.053Z,9.82
2022-08-06T22:43:05.302Z,12.82
2022-08-06T22:46:02.080Z,12.18
2022-08-06T22:48:35.703Z,12.68
2022-08-06T22:51:15.753Z,10.40
2022-08-06T22:54:28.258Z,10.85
2022-08-06T22:56:38.045Z,12.48
2022-08-06T22:59:20.572Z,16.08
2022-08-06T23:02:07.009Z,10.70
2022-08-06T23:04:46.451Z,12.50
2022-08-06T23:07:25.350Z,13.45
2022-08-06T23:09:58.730Z,14.70
2022-08-06T23:12:31.780Z,13.93
2022-08-06T23:15:20.205Z,14.77
2022-08-06T23:18:00.492Z,15.43
2022-08-06T23:20:34.617Z,12.38
2022-08-06T23:23:04.679Z,14.02
2022-08-06T23:26:00.637Z,15.00
2022-08-06T23:28:22.798Z,12.95
2022-08-06T23:30:52.257Z,12.05
2022-08-06T23:33:20.722Z,11.63
2022-08-06T23:35:50.896Z,11.43
2022-08-06T23:38:33.999Z,11.95
2022-08-06T23:41:05.163Z,11.30
2022-08-06T23:43:44.680Z,10.02
2022-08-06T23:46:19.724Z,11.43
2022-08-06T23:48:55.843Z,11.35
2022-08-06T23:51:35.990Z,13.30
2022-08-06T23:54:23.484Z,12.38
2022-08-06T23:56:57.959Z,11.63
2022-08-06T23:59:44.488Z,10.70
